createdAt,value
2018-12-05T00:00:09.951Z,3.30
2018-12-05T00:02:36.600Z,3.20
2018-12-05T00:05:04.084Z,3.30
2018-12-05T00:07:30.520Z,3.30
2018-12-05T00:09:56.965Z,3.30
2018-12-05T00:12:23.679Z,3.30
2018-12-05T00:14:50.225Z,3.40
2018-12-05T00:17:16.816Z,3.40
2018-12-05T00:19:43.300Z,3.40
2018-12-05T00:22:09.837Z,3.40
2018-12-05T00:24:36.470Z,3.50
2018-12-05T00:27:03.048Z,3.50
2018-12-05T00:29:29.537Z,3.40
2018-12-05T00:31:56.105Z,3.50
2018-12-05T00:34:22.563Z,3.50
2018-12-05T00:36:49.032Z,3.50
2018-12-05T00:39:15.570Z,3.50
2018-12-05T00:41:42.145Z,3.40
2018-12-05T00:44:08.593Z,3.40
2018-12-05T00:46:35.207Z,3.40
2018-12-05T00:49:01.657Z,3.30
2018-12-05T00:51:28.148Z,3.30
2018-12-05T00:53:54.812Z,3.30
2018-12-05T00:56:21.383Z,3.30
2018-12-05T00:58:47.842Z,3.30
2018-12-05T01:01:14.602Z,3.20
2018-12-05T01:03:41.376Z,3.20
2018-12-05T01:06:08.287Z,3.10
2018-12-05T01:08:35.131Z,3.10
2018-12-05T01:11:02.550Z,2.90
2018-12-05T01:13:29.940Z,2.90
2018-12-05T01:15:57.186Z,2.90
2018-12-05T01:18:23.972Z,2.80
2018-12-05T01:20:50.450Z,2.70
2018-12-05T01:23:17.116Z,2.70
2018-12-05T01:25:43.823Z,2.70
2018-12-05T01:28:10.727Z,2.70
2018-12-05T01:30:37.205Z,2.70
2018-12-05T01:33:03.795Z,2.60
2018-12-05T01:35:30.257Z,2.60
2018-12-05T01:37:56.631Z,2.60
2018-12-05T01:40:23.080Z,2.50
2018-12-05T01:42:49.602Z,2.60
2018-12-05T01:45:16.154Z,2.50
2018-12-05T01:47:42.662Z,2.50
2018-12-05T01:50:09.221Z,2.60
2018-12-05T01:52:35.786Z,2.50
2018-12-05T01:55:02.457Z,2.50
2018-12-05T01:57:29.024Z,2.60
2018-12-05T01:59:55.365Z,2.70
2018-12-05T02:02:21.852Z,2.60
2018-12-05T02:04:48.201Z,2.60
2018-12-05T02:07:15.571Z,2.70
2018-12-05T02:09:44.655Z,2.80
2018-12-05T02:12:11.354Z,2.60
2018-12-05T02:14:37.912Z,2.60
2018-12-05T02:17:04.486Z,2.60
2018-12-05T02:19:31.030Z,2.60
2018-12-05T02:21:57.930Z,2.70
2018-12-05T02:24:24.634Z,2.60
2018-12-05T02:26:51.435Z,2.70
2018-12-05T02:29:18.072Z,2.70
2018-12-05T02:31:44.802Z,2.80
2018-12-05T02:34:11.348Z,2.70
2018-12-05T02:36:37.888Z,2.60
2018-12-05T02:39:06.706Z,2.70
2018-12-05T02:41:33.771Z,2.80
2018-12-05T02:44:00.440Z,2.80
2018-12-05T02:46:27.692Z,2.80
2018-12-05T02:48:54.386Z,2.90
2018-12-05T02:51:20.953Z,2.90
2018-12-05T02:53:47.633Z,3.00
2018-12-05T02:56:14.194Z,2.90
2018-12-05T02:58:40.791Z,3.00
2018-12-05T03:01:08.928Z,3.00
2018-12-05T03:03:35.801Z,2.90
2018-12-05T03:06:02.616Z,3.00
2018-12-05T03:08:29.286Z,2.90
2018-12-05T03:10:55.834Z,3.00
2018-12-05T03:13:22.399Z,3.00
2018-12-05T03:15:48.956Z,3.30
2018-12-05T03:18:15.529Z,3.20
2018-12-05T03:20:42.204Z,3.20
2018-12-05T03:23:08.787Z,3.20
2018-12-05T03:25:35.631Z,3.20
2018-12-05T03:28:02.375Z,3.10
2018-12-05T03:30:28.919Z,2.90
2018-12-05T03:32:55.494Z,2.80
2018-12-05T03:35:23.986Z,2.90
2018-12-05T03:37:50.474Z,2.90
2018-12-05T03:40:16.910Z,2.70
2018-12-05T03:42:43.684Z,2.60
2018-12-05T03:45:10.246Z,2.60
2018-12-05T03:47:36.683Z,2.50
2018-12-05T03:50:04.293Z,2.40
2018-12-05T03:52:30.952Z,2.50
2018-12-05T03:54:57.673Z,2.30
2018-12-05T03:57:24.217Z,2.40
2018-12-05T03:59:50.791Z,2.40
2018-12-05T04:02:17.349Z,2.40
2018-12-05T04:04:43.961Z,2.30
2018-12-05T04:07:10.625Z,2.30
2018-12-05T04:09:37.097Z,2.30
2018-12-05T04:12:03.675Z,2.30
2018-12-05T04:14:30.133Z,2.20
2018-12-05T04:16:56.689Z,2.20
2018-12-05T04:19:23.156Z,2.10
2018-12-05T04:21:49.600Z,2.10
2018-12-05T04:24:16.071Z,2.10
2018-12-05T04:26:42.737Z,2.10
2018-12-05T04:29:09.307Z,2.00
2018-12-05T04:31:35.739Z,1.90
2018-12-05T04:34:02.225Z,1.80
2018-12-05T04:36:28.861Z,1.90
2018-12-05T04:38:55.750Z,2.00
2018-12-05T04:41:22.343Z,1.90
2018-12-05T04:43:49.025Z,1.90
2018-12-05T04:46:16.399Z,1.80
2018-12-05T04:48:43.061Z,1.80
2018-12-05T04:51:11.211Z,1.80
2018-12-05T04:53:37.785Z,1.70
2018-12-05T04:56:04.942Z,1.80
2018-12-05T04:58:31.496Z,1.80
2018-12-05T05:00:58.070Z,1.80
2018-12-05T05:03:24.618Z,1.70
2018-12-05T05:05:51.788Z,1.70
2018-12-05T05:08:18.433Z,1.70
2018-12-05T05:10:45.110Z,1.60
2018-12-05T05:13:11.649Z,1.70
2018-12-05T05:15:38.221Z,1.60
2018-12-05T05:18:06.357Z,1.60
2018-12-05T05:20:34.648Z,1.60
2018-12-05T05:23:01.193Z,1.70
2018-12-05T05:25:27.877Z,1.60
2018-12-05T05:27:56.026Z,1.60
2018-12-05T05:30:24.202Z,1.70
2018-12-05T05:32:51.873Z,1.70
2018-12-05T05:35:36.402Z,1.60
2018-12-05T05:38:02.864Z,1.70
2018-12-05T05:40:29.469Z,1.70
2018-12-05T05:42:56.007Z,1.70
2018-12-05T05:45:22.476Z,1.60
2018-12-05T05:47:48.925Z,1.50
2018-12-05T05:50:15.403Z,1.40
2018-12-05T05:52:41.839Z,1.50
2018-12-05T05:55:08.430Z,1.40
2018-12-05T05:57:34.993Z,1.40
2018-12-05T06:00:01.925Z,1.50
2018-12-05T06:02:28.493Z,1.50
2018-12-05T06:04:55.075Z,1.50
2018-12-05T06:07:21.535Z,1.50
2018-12-05T06:09:48.017Z,1.40
2018-12-05T06:12:14.577Z,1.50
2018-12-05T06:14:41.056Z,1.40
2018-12-05T06:17:07.522Z,1.30
2018-12-05T06:19:34.081Z,1.40
2018-12-05T06:22:00.521Z,1.30
2018-12-05T06:24:26.889Z,1.30
2018-12-05T06:26:53.334Z,1.50
2018-12-05T06:29:19.771Z,1.40
2018-12-05T06:31:46.231Z,1.30
2018-12-05T06:34:12.897Z,1.30
2018-12-05T06:36:39.362Z,1.30
2018-12-05T06:39:07.080Z,1.30
2018-12-05T06:41:33.678Z,1.30
2018-12-05T06:44:00.233Z,1.20
2018-12-05T06:46:26.726Z,1.40
2018-12-05T06:48:53.174Z,1.30
2018-12-05T06:51:19.679Z,1.40
2018-12-05T06:53:46.137Z,1.30
2018-12-05T06:56:12.605Z,1.20
2018-12-05T06:58:39.169Z,1.20
2018-12-05T07:01:05.638Z,1.10
2018-12-05T07:03:32.101Z,1.10
2018-12-05T07:05:58.678Z,1.30
2018-12-05T07:08:25.123Z,1.10
2018-12-05T07:10:51.714Z,1.10
2018-12-05T07:13:18.202Z,1.20
2018-12-05T07:15:44.679Z,1.20
2018-12-05T07:18:11.276Z,1.10
2018-12-05T07:20:37.736Z,1.00
2018-12-05T07:23:04.435Z,1.00
2018-12-05T07:25:30.877Z,1.10
2018-12-05T07:27:57.419Z,1.10
2018-12-05T07:30:29.422Z,1.00
2018-12-05T07:32:52.485Z,1.00
2018-12-05T07:35:18.993Z,1.00
2018-12-05T07:37:45.594Z,1.00
2018-12-05T07:40:12.034Z,1.20
2018-12-05T07:42:38.489Z,1.30
2018-12-05T07:45:05.589Z,1.30
2018-12-05T07:47:32.117Z,1.40
2018-12-05T07:49:58.713Z,1.30
2018-12-05T07:52:25.236Z,1.20
2018-12-05T07:54:51.787Z,1.30
2018-12-05T07:57:18.369Z,1.30
2018-12-05T07:59:44.829Z,1.40
2018-12-05T08:02:11.416Z,1.20
2018-12-05T08:04:45.218Z,1.20
2018-12-05T08:07:11.795Z,1.30
2018-12-05T08:09:38.267Z,1.40
2018-12-05T08:12:04.749Z,1.30
2018-12-05T08:14:31.353Z,1.20
2018-12-05T08:16:58.022Z,1.30
2018-12-05T08:19:24.511Z,1.40
2018-12-05T08:21:51.070Z,1.30
2018-12-05T08:24:17.624Z,1.30
2018-12-05T08:26:44.105Z,1.40
2018-12-05T08:29:10.553Z,1.40
2018-12-05T08:31:37.021Z,1.40
2018-12-05T08:34:03.494Z,1.50
2018-12-05T08:36:29.971Z,1.60
2018-12-05T08:38:56.540Z,1.70
2018-12-05T08:41:24.999Z,1.70
2018-12-05T08:43:51.486Z,1.60
2018-12-05T08:46:18.171Z,1.70
2018-12-05T08:48:44.745Z,1.70
2018-12-05T08:51:11.318Z,1.70
2018-12-05T08:53:37.845Z,1.70
2018-12-05T08:56:04.326Z,1.90
2018-12-05T08:58:30.865Z,1.80
2018-12-05T09:00:57.362Z,1.70
2018-12-05T09:03:23.893Z,1.80
2018-12-05T09:05:50.358Z,1.90
2018-12-05T09:08:16.689Z,2.00
2018-12-05T09:10:43.170Z,2.00
2018-12-05T09:13:09.618Z,2.10
2018-12-05T09:15:36.181Z,2.00
2018-12-05T09:18:03.008Z,2.00
2018-12-05T09:20:29.439Z,2.00
2018-12-05T09:22:56.017Z,2.00
2018-12-05T09:25:22.447Z,2.10
2018-12-05T09:27:48.836Z,2.20
2018-12-05T09:30:15.498Z,2.10
2018-12-05T09:32:42.065Z,2.10
2018-12-05T09:35:08.510Z,2.30
2018-12-05T09:37:35.113Z,2.30
2018-12-05T09:40:02.110Z,2.50
2018-12-05T09:42:28.587Z,2.40
2018-12-05T09:44:55.110Z,2.40
2018-12-05T09:47:21.769Z,2.50
2018-12-05T09:49:48.228Z,2.50
2018-12-05T09:52:14.737Z,2.70
2018-12-05T09:54:41.438Z,2.60
2018-12-05T09:57:08.001Z,2.70
2018-12-05T09:59:34.437Z,2.90
2018-12-05T10:02:01.122Z,2.90
2018-12-05T10:04:27.573Z,3.00
2018-12-05T10:06:54.015Z,3.00
2018-12-05T10:09:20.617Z,3.00
2018-12-05T10:11:47.723Z,3.00
2018-12-05T10:14:15.006Z,3.00
2018-12-05T10:16:41.675Z,3.20
2018-12-05T10:19:08.273Z,3.30
2018-12-05T10:21:34.740Z,3.30
2018-12-05T10:24:01.220Z,3.40
2018-12-05T10:26:27.824Z,3.50
2018-12-05T10:28:54.545Z,3.60
2018-12-05T10:31:21.031Z,3.70
2018-12-05T10:33:47.775Z,3.50
2018-12-05T10:36:14.239Z,3.60
2018-12-05T10:38:40.685Z,3.50
2018-12-05T10:41:07.199Z,3.70
2018-12-05T10:43:34.525Z,3.70
2018-12-05T10:46:01.397Z,3.70
2018-12-05T10:48:28.010Z,3.70
2018-12-05T10:50:54.564Z,3.90
2018-12-05T10:53:21.176Z,3.90
2018-12-05T10:55:47.740Z,3.90
2018-12-05T10:58:14.197Z,3.90
2018-12-05T11:00:46.726Z,3.90
2018-12-05T11:03:14.141Z,4.00
2018-12-05T11:05:47.278Z,4.10
2018-12-05T11:08:19.612Z,4.10
2018-12-05T11:10:51.935Z,4.10
2018-12-05T11:13:24.615Z,4.20
2018-12-05T11:15:59.264Z,4.30
2018-12-05T11:18:33.032Z,4.40
2018-12-05T11:21:05.853Z,4.40
2018-12-05T11:23:38.823Z,4.50
2018-12-05T11:26:08.228Z,4.40
2018-12-05T11:28:34.688Z,4.40
2018-12-05T11:31:01.147Z,4.60
2018-12-05T11:33:27.757Z,4.70
2018-12-05T11:35:54.211Z,4.60
2018-12-05T11:38:20.588Z,4.70
2018-12-05T11:40:47.044Z,4.80
2018-12-05T11:43:13.540Z,4.80
2018-12-05T11:45:40.043Z,4.70
2018-12-05T11:48:06.553Z,4.60
2018-12-05T11:50:33.015Z,4.70
2018-12-05T11:52:59.593Z,4.90
2018-12-05T11:55:26.053Z,4.80
2018-12-05T11:57:52.781Z,4.80
2018-12-05T12:00:19.516Z,4.80
2018-12-05T12:02:46.137Z,4.80
2018-12-05T12:05:12.615Z,4.80
2018-12-05T12:07:39.197Z,4.70
2018-12-05T12:10:06.363Z,4.80
2018-12-05T12:12:39.103Z,4.80
2018-12-05T12:15:06.370Z,4.80
2018-12-05T12:17:33.713Z,4.80
2018-12-05T12:20:00.347Z,4.80
2018-12-05T12:22:26.831Z,4.70
2018-12-05T12:24:53.402Z,4.70
2018-12-05T12:27:19.894Z,4.90
2018-12-05T12:29:46.439Z,4.90
2018-12-05T12:32:13.009Z,4.90
2018-12-05T12:34:39.586Z,4.80
2018-12-05T12:37:06.149Z,5.00
2018-12-05T12:39:32.634Z,4.80
2018-12-05T12:41:59.174Z,5.00
2018-12-05T12:44:26.000Z,5.00
2018-12-05T12:46:52.651Z,5.20
2018-12-05T12:49:19.122Z,5.30
2018-12-05T12:51:46.482Z,5.50
2018-12-05T12:54:13.056Z,5.80
2018-12-05T12:56:39.602Z,5.80
2018-12-05T12:59:06.194Z,5.90
2018-12-05T13:01:32.753Z,6.10
2018-12-05T13:03:59.367Z,6.30
2018-12-05T13:06:26.491Z,6.20
2018-12-05T13:08:52.980Z,6.20
2018-12-05T13:11:19.343Z,6.10
2018-12-05T13:13:46.022Z,6.10
2018-12-05T13:16:12.461Z,6.00
2018-12-05T13:18:38.922Z,5.90
2018-12-05T13:21:05.477Z,6.00
2018-12-05T13:23:32.047Z,6.20
2018-12-05T13:25:58.617Z,6.20
2018-12-05T13:28:25.238Z,6.40
2018-12-05T13:30:51.855Z,6.50
2018-12-05T13:33:18.336Z,6.30
2018-12-05T13:35:44.894Z,6.20
2018-12-05T13:38:11.513Z,6.00
2018-12-05T13:40:38.091Z,5.80
2018-12-05T13:43:04.697Z,5.70
2018-12-05T13:45:31.265Z,5.50
2018-12-05T13:47:57.746Z,5.40
2018-12-05T13:50:24.523Z,5.50
2018-12-05T13:52:51.003Z,5.70
2018-12-05T13:55:17.493Z,5.50
2018-12-05T13:57:44.093Z,5.80
2018-12-05T14:00:11.233Z,6.10
2018-12-05T14:02:37.850Z,6.10
2018-12-05T14:05:04.527Z,5.90
2018-12-05T14:07:32.147Z,5.60
2018-12-05T14:09:58.850Z,5.50
2018-12-05T14:12:26.081Z,5.40
2018-12-05T14:14:53.089Z,5.10
2018-12-05T14:17:19.581Z,4.90
2018-12-05T14:19:46.070Z,4.50
2018-12-05T14:22:12.639Z,4.30
2018-12-05T14:24:39.128Z,4.10
2018-12-05T14:27:05.689Z,4.00
2018-12-05T14:29:32.229Z,3.90
2018-12-05T14:31:58.865Z,3.90
2018-12-05T14:34:25.428Z,3.70
2018-12-05T14:36:51.991Z,3.50
2018-12-05T14:39:18.597Z,3.40
2018-12-05T14:41:45.348Z,3.40
2018-12-05T14:44:12.051Z,3.30
2018-12-05T14:46:38.526Z,3.30
2018-12-05T14:49:05.126Z,3.20
2018-12-05T14:51:31.599Z,3.10
2018-12-05T14:53:58.181Z,3.00
2018-12-05T14:56:24.608Z,3.00
2018-12-05T14:58:51.350Z,2.90
2018-12-05T15:01:17.805Z,3.10
2018-12-05T15:03:44.368Z,3.10
2018-12-05T15:06:10.871Z,3.10
2018-12-05T15:08:37.631Z,2.90
2018-12-05T15:11:04.078Z,2.90
2018-12-05T15:13:30.752Z,3.10
2018-12-05T15:15:57.338Z,3.00
2018-12-05T15:18:24.067Z,3.00
2018-12-05T15:20:50.920Z,3.00
2018-12-05T15:23:17.513Z,3.00
2018-12-05T15:25:44.093Z,3.00
2018-12-05T15:28:10.679Z,2.90
2018-12-05T15:30:37.206Z,3.00
2018-12-05T15:33:03.664Z,2.90
2018-12-05T15:35:30.450Z,2.90
2018-12-05T15:37:57.112Z,3.00
2018-12-05T15:40:24.474Z,2.80
2018-12-05T15:42:50.911Z,2.90
2018-12-05T15:45:21.539Z,2.90
2018-12-05T15:47:45.887Z,2.90
2018-12-05T15:50:12.713Z,2.80
2018-12-05T15:52:39.113Z,2.70
2018-12-05T15:55:05.925Z,2.80
2018-12-05T15:57:32.480Z,2.80
2018-12-05T15:59:58.969Z,2.70
2018-12-05T16:02:25.705Z,2.80
2018-12-05T16:04:52.308Z,2.80
2018-12-05T16:07:18.770Z,2.80
2018-12-05T16:09:45.266Z,2.70
2018-12-05T16:12:11.779Z,2.60
2018-12-05T16:14:38.280Z,2.50
2018-12-05T16:17:04.985Z,2.60
2018-12-05T16:19:31.476Z,2.60
2018-12-05T16:21:58.011Z,2.60
2018-12-05T16:24:24.349Z,2.50
2018-12-05T16:26:50.793Z,2.50
2018-12-05T16:29:17.284Z,2.50
2018-12-05T16:31:43.890Z,2.50
2018-12-05T16:34:10.450Z,2.50
2018-12-05T16:36:37.048Z,2.40
2018-12-05T16:39:06.289Z,2.30
2018-12-05T16:41:32.793Z,2.30
2018-12-05T16:44:00.534Z,2.40
2018-12-05T16:46:27.201Z,2.40
2018-12-05T16:48:53.719Z,2.30
2018-12-05T16:51:20.314Z,2.40
2018-12-05T16:53:46.759Z,2.40
2018-12-05T16:56:13.419Z,2.30
2018-12-05T16:58:39.982Z,2.30
2018-12-05T17:01:06.518Z,2.30
2018-12-05T17:03:33.038Z,2.30
2018-12-05T17:05:59.544Z,2.30
2018-12-05T17:08:25.918Z,2.30
2018-12-05T17:10:52.415Z,2.30
2018-12-05T17:13:19.130Z,2.30
2018-12-05T17:15:45.813Z,2.30
2018-12-05T17:18:12.446Z,2.30
2018-12-05T17:20:39.089Z,2.30
2018-12-05T17:23:05.647Z,2.40
2018-12-05T17:25:32.301Z,2.40
2018-12-05T17:27:58.768Z,2.30
2018-12-05T17:30:25.373Z,2.20
2018-12-05T17:32:51.835Z,2.30
2018-12-05T17:35:18.348Z,2.40
2018-12-05T17:37:44.950Z,2.40
2018-12-05T17:40:11.538Z,2.30
2018-12-05T17:42:38.025Z,2.40
2018-12-05T17:45:04.786Z,2.30
2018-12-05T17:47:31.285Z,2.30
2018-12-05T17:49:57.760Z,2.40
2018-12-05T17:52:24.373Z,2.40
2018-12-05T17:54:51.017Z,2.30
2018-12-05T17:57:17.522Z,2.40
2018-12-05T17:59:44.012Z,2.50
2018-12-05T18:02:10.526Z,2.40
2018-12-05T18:04:36.900Z,2.40
2018-12-05T18:07:03.693Z,2.40
2018-12-05T18:09:30.306Z,2.30
2018-12-05T18:11:56.680Z,2.40
2018-12-05T18:14:23.324Z,2.30
2018-12-05T18:16:49.765Z,2.30
2018-12-05T18:19:16.235Z,2.30
2018-12-05T18:21:42.900Z,2.30
2018-12-05T18:24:09.649Z,2.30
2018-12-05T18:26:36.152Z,2.30
2018-12-05T18:29:02.877Z,2.30
2018-12-05T18:31:29.631Z,2.10
2018-12-05T18:33:56.224Z,2.20
2018-12-05T18:36:22.772Z,2.30
2018-12-05T18:38:49.326Z,2.30
2018-12-05T18:41:15.990Z,2.30
2018-12-05T18:43:42.442Z,2.20
2018-12-05T18:46:08.920Z,2.30
2018-12-05T18:48:35.455Z,2.20
2018-12-05T18:51:02.082Z,2.20
2018-12-05T18:53:28.588Z,2.20
2018-12-05T18:55:54.955Z,2.30
2018-12-05T18:58:21.705Z,2.30
2018-12-05T19:00:48.061Z,2.40
2018-12-05T19:03:14.443Z,2.30
2018-12-05T19:05:40.845Z,2.40
2018-12-05T19:08:08.918Z,2.30
2018-12-05T19:10:36.633Z,2.40
2018-12-05T19:13:03.303Z,2.50
2018-12-05T19:15:29.788Z,2.50
2018-12-05T19:17:56.392Z,2.40
2018-12-05T19:20:22.776Z,2.40
2018-12-05T19:22:49.242Z,2.50
2018-12-05T19:25:15.681Z,2.50
2018-12-05T19:27:42.155Z,2.50
2018-12-05T19:30:08.970Z,2.50
2018-12-05T19:32:35.637Z,2.60
2018-12-05T19:35:03.345Z,2.70
2018-12-05T19:37:29.918Z,2.60
2018-12-05T19:39:56.621Z,2.60
2018-12-05T19:42:23.116Z,2.60
2018-12-05T19:44:49.815Z,2.60
2018-12-05T19:47:16.507Z,2.70
2018-12-05T19:49:43.224Z,2.60
2018-12-05T19:52:09.838Z,2.70
2018-12-05T19:54:36.425Z,2.70
2018-12-05T19:57:02.905Z,2.70
2018-12-05T19:59:29.521Z,2.70
2018-12-05T20:01:56.116Z,2.70
2018-12-05T20:04:22.613Z,2.80
2018-12-05T20:06:49.181Z,2.90
2018-12-05T20:09:15.876Z,2.80
2018-12-05T20:11:42.426Z,2.80
2018-12-05T20:14:10.851Z,2.70
2018-12-05T20:16:46.097Z,2.80
2018-12-05T20:19:12.590Z,2.80
2018-12-05T20:21:39.040Z,2.80
2018-12-05T20:24:05.626Z,2.90
2018-12-05T20:26:32.260Z,2.80
2018-12-05T20:28:58.801Z,2.90
2018-12-05T20:31:25.298Z,2.90
2018-12-05T20:33:51.906Z,2.90
2018-12-05T20:36:18.470Z,2.90
2018-12-05T20:38:44.964Z,2.80
2018-12-05T20:41:11.446Z,3.00
2018-12-05T20:43:38.540Z,3.00
2018-12-05T20:46:05.067Z,3.00
2018-12-05T20:48:31.675Z,2.90
2018-12-05T20:50:58.257Z,2.90
2018-12-05T20:53:24.864Z,2.80
2018-12-05T20:55:51.393Z,3.00
2018-12-05T20:58:17.861Z,3.00
2018-12-05T21:00:44.430Z,3.00
2018-12-05T21:03:10.886Z,3.00
2018-12-05T21:05:37.989Z,3.10
2018-12-05T21:08:04.631Z,3.00
2018-12-05T21:10:31.184Z,2.90
2018-12-05T21:12:57.765Z,2.90
2018-12-05T21:15:24.342Z,2.80
2018-12-05T21:17:50.912Z,3.00
2018-12-05T21:20:17.576Z,2.80
2018-12-05T21:22:47.139Z,3.00
2018-12-05T21:25:12.619Z,3.10
2018-12-05T21:27:40.939Z,3.00
2018-12-05T21:30:07.900Z,3.10
2018-12-05T21:32:35.403Z,3.10
2018-12-05T21:35:02.319Z,3.20
2018-12-05T21:37:29.048Z,3.10
2018-12-05T21:39:55.699Z,3.10
2018-12-05T21:42:23.016Z,3.00
2018-12-05T21:44:49.695Z,3.10
2018-12-05T21:47:16.344Z,3.00
2018-12-05T21:49:42.790Z,3.00
2018-12-05T21:52:09.244Z,3.10
2018-12-05T21:54:35.849Z,3.20
2018-12-05T21:57:02.403Z,3.20
2018-12-05T21:59:29.130Z,3.10
2018-12-05T22:01:55.719Z,3.00
2018-12-05T22:04:22.405Z,3.10
2018-12-05T22:06:49.025Z,3.00
2018-12-05T22:09:15.689Z,3.20
2018-12-05T22:11:42.268Z,3.00
2018-12-05T22:14:08.896Z,3.10
2018-12-05T22:16:35.519Z,3.20
2018-12-05T22:19:02.130Z,3.20
2018-12-05T22:21:28.731Z,3.30
2018-12-05T22:23:55.802Z,3.20
2018-12-05T22:26:22.660Z,3.30
2018-12-05T22:28:49.240Z,3.20
2018-12-05T22:31:16.552Z,3.20
2018-12-05T22:33:43.276Z,3.40
2018-12-05T22:36:09.789Z,3.30
2018-12-05T22:38:36.555Z,3.10
2018-12-05T22:41:03.077Z,3.40
2018-12-05T22:43:29.661Z,3.30
2018-12-05T22:45:56.281Z,3.30
2018-12-05T22:48:23.012Z,3.30
2018-12-05T22:50:49.771Z,3.40
2018-12-05T22:53:16.341Z,3.40
2018-12-05T22:55:42.821Z,3.40
2018-12-05T22:58:09.452Z,3.40
2018-12-05T23:00:38.180Z,3.30
2018-12-05T23:03:04.767Z,3.30
2018-12-05T23:05:31.361Z,3.50
2018-12-05T23:07:58.012Z,3.40
2018-12-05T23:10:24.605Z,3.40
2018-12-05T23:12:51.248Z,3.40
2018-12-05T23:15:17.869Z,3.40
2018-12-05T23:17:44.431Z,3.40
2018-12-05T23:20:11.140Z,3.40
2018-12-05T23:22:37.842Z,3.70
2018-12-05T23:25:05.037Z,3.60
2018-12-05T23:27:32.462Z,3.60
2018-12-05T23:29:59.748Z,3.60
2018-12-05T23:32:26.484Z,3.50
2018-12-05T23:34:53.060Z,3.50
2018-12-05T23:37:19.666Z,3.60
2018-12-05T23:39:46.499Z,3.70
2018-12-05T23:42:13.865Z,3.70
2018-12-05T23:44:40.515Z,3.60
2018-12-05T23:47:07.077Z,3.80
2018-12-05T23:49:34.208Z,3.70
2018-12-05T23:52:00.868Z,3.70
2018-12-05T23:54:27.608Z,3.70
2018-12-05T23:56:54.233Z,3.70
2018-12-05T23:59:20.891Z,3.70
